Time;durP1;ratioP1;P1;durP2;ratioP2;P2;SDS_P1;SDS_P2;PMS_P1;PMS_P2;Temp;Humidity;BMP_temperature;BMP_pressure;BME280_temperature;BME280_humidity;BME280_pressure;Samples;Min_cycle;Max_cycle;Signal;HPM_P1;HPM_P2
2021/10/15 00:01:16;;;;;;;19.63;12.75;;;7.10;47.70;;;;;;5068638;28;20048;-69
2021/10/15 00:03:45;;;;;;;23.30;13.45;;;7.10;47.40;;;;;;5081772;28;20052;-69
2021/10/15 00:06:14;;;;;;;19.85;12.85;;;7.10;46.70;;;;;;5083029;28;20040;-69
2021/10/15 00:08:42;;;;;;;20.38;12.85;;;7.10;46.70;;;;;;5066701;28;20132;-69
2021/10/15 00:11:10;;;;;;;19.95;13.13;;;7.10;46.50;;;;;;5075332;28;21294;-69
2021/10/15 00:13:41;;;;;;;18.67;12.85;;;7.10;46.20;;;;;;5072122;28;20209;-69
2021/10/15 00:16:09;;;;;;;18.27;12.15;;;7.10;46.30;;;;;;5071650;28;20524;-69
2021/10/15 00:18:41;;;;;;;17.13;12.57;;;7.10;46.30;;;;;;5081314;28;20036;-69
2021/10/15 00:21:15;;;;;;;19.73;12.95;;;7.00;45.80;;;;;;5076138;28;20049;-69
2021/10/15 00:23:47;;;;;;;18.20;12.93;;;7.00;46.20;;;;;;5076389;28;20068;-69
2021/10/15 00:26:17;;;;;;;17.70;12.45;;;7.00;45.80;;;;;;5082390;28;20488;-69
2021/10/15 00:28:45;;;;;;;22.65;14.48;;;7.00;45.70;;;;;;5066892;28;20045;-69
2021/10/15 00:31:13;;;;;;;18.55;12.90;;;6.90;45.90;;;;;;5069135;28;20053;-69
2021/10/15 00:33:42;;;;;;;19.08;13.82;;;6.90;45.80;;;;;;5072860;28;20047;-69
2021/10/15 00:36:10;;;;;;;18.52;12.57;;;6.90;45.90;;;;;;5068264;28;20128;-68
2021/10/15 00:38:40;;;;;;;17.00;11.50;;;6.90;45.80;;;;;;5068397;28;20040;-68
2021/10/15 00:41:10;;;;;;;18.17;11.85;;;6.80;45.90;;;;;;5067707;28;20051;-68
2021/10/15 00:43:57;;;;;;;19.88;12.68;;;6.80;46.00;;;;;;5073656;28;20051;-68
2021/10/15 00:46:26;;;;;;;18.77;12.00;;;6.80;46.00;;;;;;5071680;28;20428;-67
2021/10/15 00:48:58;;;;;;;17.80;11.55;;;6.80;45.90;;;;;;5073925;28;20044;-68
2021/10/15 00:51:28;;;;;;;20.88;12.40;;;6.80;46.00;;;;;;5078454;28;20041;-68
2021/10/15 00:54:03;;;;;;;20.10;11.75;;;6.70;45.90;;;;;;5073277;28;20468;-68
2021/10/15 00:56:34;;;;;;;21.85;12.18;;;6.70;45.90;;;;;;5072117;28;20064;-68
2021/10/15 00:59:05;;;;;;;20.30;11.90;;;6.70;45.50;;;;;;5068569;28;20044;-68
2021/10/15 01:01:33;;;;;;;21.25;12.30;;;6.60;46.20;;;;;;5076678;28;20047;-67
2021/10/15 01:04:02;;;;;;;16.80;11.57;;;6.60;46.30;;;;;;5065905;28;20052;-68
2021/10/15 01:06:32;;;;;;;16.90;11.93;;;6.50;46.90;;;;;;5063663;28;20140;-68
2021/10/15 01:09:03;;;;;;;18.75;12.15;;;6.50;47.40;;;;;;5065970;28;20049;-68
2021/10/15 01:11:31;;;;;;;19.02;11.57;;;6.50;47.50;;;;;;5068948;28;20058;-68
2021/10/15 01:14:03;;;;;;;17.73;11.93;;;6.50;47.30;;;;;;5071612;28;20053;-68
2021/10/15 01:16:33;;;;;;;19.50;11.77;;;6.40;47.40;;;;;;5064984;28;20097;-67
2021/10/15 01:19:02;;;;;;;20.50;11.57;;;6.40;47.50;;;;;;5063561;28;20048;-70
2021/10/15 01:21:37;;;;;;;17.85;12.55;;;6.50;47.70;;;;;;5073099;28;20080;-67
2021/10/15 01:24:06;;;;;;;19.83;12.23;;;6.50;47.50;;;;;;5076532;28;20044;-68
2021/10/15 01:26:36;;;;;;;16.77;11.98;;;6.40;47.40;;;;;;5068491;28;20067;-69
2021/10/15 01:29:04;;;;;;;16.83;11.65;;;6.50;47.30;;;;;;5063631;28;20066;-71
2021/10/15 01:31:34;;;;;;;16.67;11.68;;;6.50;47.40;;;;;;5073903;28;20449;-69
2021/10/15 01:34:05;;;;;;;19.92;11.15;;;6.50;46.60;;;;;;5071612;28;20550;-69
2021/10/15 01:36:33;;;;;;;18.67;11.77;;;6.50;46.10;;;;;;5077102;28;20476;-69
2021/10/15 01:39:05;;;;;;;17.98;11.50;;;6.50;45.30;;;;;;5067942;28;20093;-70
2021/10/15 01:41:36;;;;;;;18.58;11.38;;;6.40;45.50;;;;;;5070882;28;20044;-69
2021/10/15 01:44:05;;;;;;;18.67;11.90;;;6.40;45.50;;;;;;5081288;28;20120;-72
2021/10/15 01:46:33;;;;;;;17.38;11.10;;;6.40;45.70;;;;;;5071724;28;20043;-70
2021/10/15 01:49:05;;;;;;;18.63;12.63;;;6.50;45.70;;;;;;5065526;28;20052;-70
2021/10/15 01:51:34;;;;;;;17.92;12.32;;;6.50;45.30;;;;;;5079207;28;20049;-69
2021/10/15 01:54:02;;;;;;;16.05;11.48;;;6.50;45.00;;;;;;5072963;28;20167;-69
2021/10/15 01:56:33;;;;;;;19.58;11.73;;;6.50;44.50;;;;;;5073824;28;20083;-69
2021/10/15 01:59:06;;;;;;;17.35;11.30;;;6.40;44.30;;;;;;5066593;28;20053;-70
2021/10/15 02:01:34;;;;;;;20.17;12.30;;;6.40;44.60;;;;;;5070571;28;20076;-70
2021/10/15 02:04:02;;;;;;;18.52;11.75;;;6.40;44.70;;;;;;5071703;28;20419;-70
2021/10/15 02:06:35;;;;;;;22.75;12.63;;;6.40;44.30;;;;;;5069515;28;20048;-69
2021/10/15 02:09:03;;;;;;;25.13;13.95;;;6.40;43.70;;;;;;5065784;28;20578;-69
2021/10/15 02:11:36;;;;;;;18.40;12.90;;;6.40;44.00;;;;;;5065072;28;20067;-69
2021/10/15 02:14:07;;;;;;;18.88;13.32;;;6.40;43.50;;;;;;5072337;28;20044;-69
2021/10/15 02:16:35;;;;;;;22.05;13.57;;;6.40;44.10;;;;;;5072458;28;20119;-70
2021/10/15 02:19:03;;;;;;;21.13;12.93;;;6.30;44.00;;;;;;5063401;28;20076;-69
2021/10/15 02:21:31;;;;;;;24.17;12.70;;;6.30;44.10;;;;;;5071172;28;20048;-70
2021/10/15 02:23:59;;;;;;;21.85;13.48;;;6.30;43.70;;;;;;5070944;28;21234;-69
2021/10/15 02:26:31;;;;;;;19.48;12.70;;;6.30;43.50;;;;;;5070666;28;20431;-69
2021/10/15 02:29:01;;;;;;;17.95;12.23;;;6.20;44.10;;;;;;5070592;28;20127;-69
2021/10/15 02:31:32;;;;;;;19.48;12.07;;;6.20;44.40;;;;;;5074611;28;20579;-70
2021/10/15 02:34:01;;;;;;;15.82;11.32;;;6.20;44.40;;;;;;5078661;28;20058;-70
2021/10/15 02:36:29;;;;;;;16.85;10.85;;;6.10;44.30;;;;;;5069793;28;20564;-70
2021/10/15 02:38:57;;;;;;;15.30;10.75;;;6.10;44.40;;;;;;5066948;28;20626;-70
2021/10/15 02:41:25;;;;;;;15.77;10.80;;;6.10;44.60;;;;;;5076791;28;20095;-67
2021/10/15 02:43:54;;;;;;;14.77;10.50;;;6.10;44.90;;;;;;5071863;28;20052;-69
2021/10/15 02:46:27;;;;;;;17.67;11.00;;;6.10;44.20;;;;;;5072041;28;20504;-69
2021/10/15 02:48:59;;;;;;;16.80;11.20;;;6.00;44.60;;;;;;5069875;28;20059;-69
2021/10/15 02:51:28;;;;;;;17.65;11.23;;;6.00;44.80;;;;;;5074974;28;20051;-69
2021/10/15 02:53:57;;;;;;;18.42;11.60;;;6.00;44.60;;;;;;5075722;28;20121;-69
2021/10/15 02:56:25;;;;;;;14.30;10.85;;;6.00;44.80;;;;;;5076593;28;20119;-69
2021/10/15 02:58:55;;;;;;;17.90;11.10;;;6.00;44.40;;;;;;5071733;28;20032;-69
2021/10/15 03:01:28;;;;;;;17.17;10.50;;;6.00;44.20;;;;;;5073105;28;20765;-69
2021/10/15 03:03:56;;;;;;;19.45;10.77;;;6.00;44.30;;;;;;5071751;28;20037;-69
2021/10/15 03:06:26;;;;;;;16.10;10.43;;;6.00;44.30;;;;;;5070090;28;20762;-69
2021/10/15 03:08:56;;;;;;;16.85;11.20;;;5.90;44.10;;;;;;5068136;28;20048;-69
2021/10/15 03:11:28;;;;;;;20.10;11.50;;;5.90;44.00;;;;;;5072472;28;20215;-69
2021/10/15 03:13:59;;;;;;;18.33;11.07;;;5.80;43.80;;;;;;5070326;28;20063;-69
2021/10/15 03:16:28;;;;;;;15.98;11.38;;;5.80;44.00;;;;;;5072436;28;20074;-69
2021/10/15 03:18:57;;;;;;;16.23;11.10;;;5.80;44.50;;;;;;5066268;28;20044;-70
2021/10/15 03:21:25;;;;;;;18.77;11.57;;;5.80;44.40;;;;;;5070424;28;20041;-70
2021/10/15 03:23:54;;;;;;;16.98;11.88;;;5.70;44.70;;;;;;5072284;28;20128;-70
2021/10/15 03:26:27;;;;;;;18.55;11.15;;;5.70;44.50;;;;;;5069971;28;20044;-70
2021/10/15 03:28:55;;;;;;;17.98;12.02;;;5.70;44.60;;;;;;5067235;28;20106;-69
2021/10/15 03:31:23;;;;;;;17.13;11.18;;;5.60;44.60;;;;;;5070515;28;20349;-69
2021/10/15 03:33:52;;;;;;;19.20;11.43;;;5.60;44.90;;;;;;5071960;28;20072;-69
2021/10/15 03:36:21;;;;;;;18.17;10.95;;;5.60;45.00;;;;;;5070231;28;20056;-68
2021/10/15 03:38:54;;;;;;;17.33;11.40;;;5.60;45.00;;;;;;5073217;28;21463;-69
2021/10/15 03:41:24;;;;;;;17.10;11.88;;;5.60;45.20;;;;;;5070483;28;20051;-69
2021/10/15 03:43:57;;;;;;;15.52;10.32;;;5.60;45.00;;;;;;5069209;28;20052;-69
2021/10/15 03:46:25;;;;;;;17.27;11.18;;;5.60;45.00;;;;;;5071288;28;20254;-69
2021/10/15 03:48:59;;;;;;;17.85;10.73;;;5.60;45.00;;;;;;5064923;28;20044;-69
2021/10/15 03:51:32;;;;;;;16.20;10.93;;;5.60;45.20;;;;;;5072846;28;20134;-69
2021/10/15 03:54:01;;;;;;;15.77;10.60;;;5.60;44.70;;;;;;5074116;28;20044;-69
2021/10/15 03:56:32;;;;;;;15.77;10.10;;;5.60;44.50;;;;;;5066019;28;20048;-69
2021/10/15 03:59:00;;;;;;;14.25;9.50;;;5.60;44.90;;;;;;5062637;28;20048;-70
2021/10/15 04:01:32;;;;;;;14.80;9.82;;;5.60;44.50;;;;;;5067061;28;20040;-68
2021/10/15 04:04:02;;;;;;;16.83;9.95;;;5.60;43.90;;;;;;5069106;28;20064;-68
2021/10/15 04:06:31;;;;;;;16.50;10.32;;;5.60;43.50;;;;;;5049333;28;20037;-69
2021/10/15 04:09:05;;;;;;;15.63;10.60;;;5.70;43.00;;;;;;5071289;28;20040;-69
2021/10/15 04:11:39;;;;;;;16.90;10.98;;;5.60;42.70;;;;;;5072220;28;20227;-69
2021/10/15 04:14:07;;;;;;;15.20;10.45;;;5.70;42.80;;;;;;5069193;28;20056;-69
2021/10/15 04:16:35;;;;;;;17.55;10.18;;;5.70;42.60;;;;;;5066112;28;20068;-69
2021/10/15 04:19:05;;;;;;;13.52;9.68;;;5.60;42.60;;;;;;5065213;28;20045;-69
2021/10/15 04:21:37;;;;;;;14.65;9.75;;;5.60;42.60;;;;;;5071357;28;20423;-69
2021/10/15 04:24:05;;;;;;;14.13;9.27;;;5.60;42.70;;;;;;5066657;28;20057;-69
2021/10/15 04:26:33;;;;;;;17.23;10.55;;;5.50;42.60;;;;;;5068656;28;20101;-69
2021/10/15 04:29:06;;;;;;;14.68;9.70;;;5.50;42.70;;;;;;5065892;28;20044;-69
2021/10/15 04:31:36;;;;;;;13.90;9.98;;;5.50;42.60;;;;;;5068882;28;20086;-68
2021/10/15 04:34:09;;;;;;;16.20;10.85;;;5.50;42.90;;;;;;5066244;28;20052;-68
2021/10/15 04:36:50;;;;;;;14.18;9.50;;;5.50;42.60;;;;;;5066818;28;20044;-70
2021/10/15 04:39:19;;;;;;;15.57;9.77;;;5.50;42.60;;;;;;5057834;28;20110;-69
2021/10/15 04:41:50;;;;;;;15.25;9.55;;;5.50;42.60;;;;;;5067057;28;20515;-69
2021/10/15 04:44:22;;;;;;;14.60;9.88;;;5.50;42.60;;;;;;5066578;28;20072;-69
2021/10/15 04:46:53;;;;;;;17.67;11.05;;;5.50;42.60;;;;;;5064234;28;20492;-70
2021/10/15 04:49:27;;;;;;;15.07;10.10;;;5.50;42.60;;;;;;5060786;28;20044;-69
2021/10/15 04:51:57;;;;;;;19.15;10.55;;;5.50;42.60;;;;;;5079369;28;20092;-68
2021/10/15 04:54:28;;;;;;;12.73;9.68;;;5.40;42.50;;;;;;5072491;28;20508;-68
2021/10/15 04:56:56;;;;;;;14.88;9.82;;;5.30;42.50;;;;;;5071006;28;20126;-69
2021/10/15 04:59:24;;;;;;;12.98;9.57;;;5.30;42.50;;;;;;5073240;28;20048;-68
2021/10/15 05:01:53;;;;;;;17.88;9.88;;;5.30;42.50;;;;;;5066457;28;20068;-69
2021/10/15 05:04:28;;;;;;;13.48;9.77;;;5.30;42.50;;;;;;5071326;28;20040;-69
2021/10/15 05:06:57;;;;;;;17.08;9.52;;;5.30;42.50;;;;;;5077641;28;20122;-69
2021/10/15 05:09:33;;;;;;;18.38;10.20;;;5.30;42.50;;;;;;5066454;28;20055;-68
2021/10/15 05:12:03;;;;;;;17.85;11.00;;;5.30;42.50;;;;;;5070951;28;20044;-69
2021/10/15 05:14:34;;;;;;;15.80;9.35;;;5.30;42.50;;;;;;5077931;28;20037;-70
2021/10/15 05:17:04;;;;;;;16.58;10.55;;;5.30;42.50;;;;;;5066568;28;20059;-70
2021/10/15 05:19:35;;;;;;;16.55;9.82;;;5.30;42.50;;;;;;5075706;28;20495;-71
2021/10/15 05:22:03;;;;;;;17.15;10.88;;;5.40;42.70;;;;;;5075831;28;20056;-70
2021/10/15 05:24:31;;;;;;;16.52;10.60;;;5.30;42.50;;;;;;5067697;28;20048;-69
2021/10/15 05:27:00;;;;;;;15.68;10.85;;;5.40;42.50;;;;;;5075178;28;20135;-70
2021/10/15 05:29:28;;;;;;;13.80;10.40;;;5.40;42.50;;;;;;5072154;28;20058;-70
2021/10/15 05:31:56;;;;;;;18.13;12.18;;;5.40;42.50;;;;;;5069139;28;20778;-71
2021/10/15 05:34:24;;;;;;;20.15;11.48;;;5.40;42.50;;;;;;5077061;28;20072;-69
2021/10/15 05:36:54;;;;;;;14.30;10.15;;;5.50;42.50;;;;;;5069898;28;20036;-70
2021/10/15 05:39:23;;;;;;;15.63;10.70;;;5.50;41.80;;;;;;5070784;28;20044;-68
2021/10/15 05:41:55;;;;;;;15.18;9.68;;;5.60;41.10;;;;;;5078780;28;20053;-69
2021/10/15 05:44:25;;;;;;;16.17;10.18;;;5.70;39.30;;;;;;5066391;28;20048;-69
2021/10/15 05:46:53;;;;;;;13.60;9.38;;;5.70;38.60;;;;;;5067702;28;20138;-69
2021/10/15 05:49:21;;;;;;;16.77;9.68;;;5.70;38.60;;;;;;5073166;28;20160;-69
2021/10/15 05:52:02;;;;;;;16.13;9.52;;;5.70;38.50;;;;;;5065720;28;20135;-69
2021/10/15 05:54:42;;;;;;;14.40;9.63;;;5.70;38.50;;;;;;5071940;28;20074;-69
2021/10/15 05:58:48;;;;;;;15.52;9.38;;;5.80;37.80;;;;;;5069678;28;20059;-69
2021/10/15 06:00:18;;;;;;;14.70;9.27;;;5.70;37.50;;;;;;5068597;28;20127;-69
2021/10/15 06:02:46;;;;;;;14.13;9.35;;;5.70;38.30;;;;;;5068549;28;20040;-69
2021/10/15 06:06:13;;;;;;;13.50;9.52;;;5.80;38.70;;;;;;5075672;28;20052;-69
2021/10/15 06:14:18;;;;;;;14.25;9.07;;;6.00;37.50;;;;;;5052821;28;20084;-70
2021/10/15 06:16:49;;;;;;;11.32;8.35;;;6.00;36.90;;;;;;5079055;28;20134;-70
2021/10/15 06:19:19;;;;;;;13.80;9.27;;;6.00;36.40;;;;;;5069447;28;20051;-70
2021/10/15 06:21:48;;;;;;;16.58;9.55;;;6.00;34.70;;;;;;5074980;28;20127;-70
2021/10/15 06:24:18;;;;;;;11.00;8.10;;;6.00;34.40;;;;;;5064278;28;20045;-69
2021/10/15 06:26:47;;;;;;;16.40;8.75;;;6.00;34.30;;;;;;5064855;28;20047;-70
2021/10/15 06:29:19;;;;;;;18.20;10.02;;;6.00;32.80;;;;;;5070341;28;21006;-70
2021/10/15 06:31:49;;;;;;;18.27;10.30;;;6.10;33.00;;;;;;5068348;28;20060;-70
2021/10/15 06:34:18;;;;;;;19.17;10.50;;;6.10;32.00;;;;;;5069132;28;20044;-70
2021/10/15 06:36:46;;;;;;;15.00;10.38;;;6.00;33.00;;;;;;5068326;28;20093;-69
2021/10/15 06:39:20;;;;;;;19.35;10.77;;;6.10;33.50;;;;;;5069639;28;20051;-70
2021/10/15 06:41:47;;;;;;;18.83;10.68;;;6.10;33.30;;;;;;5071431;28;20048;-69
2021/10/15 06:44:15;;;;;;;17.45;11.07;;;6.00;32.90;;;;;;5071960;28;20297;-69
2021/10/15 06:46:43;;;;;;;15.63;10.32;;;6.10;33.30;;;;;;5065599;28;20147;-68
2021/10/15 06:49:12;;;;;;;19.23;10.48;;;6.20;32.70;;;;;;5065969;28;20223;-69
2021/10/15 06:51:43;;;;;;;16.70;10.10;;;6.20;32.50;;;;;;5074314;28;20068;-69
2021/10/15 06:54:13;;;;;;;17.33;10.25;;;6.30;32.00;;;;;;5067869;28;20049;-69
2021/10/15 06:56:52;;;;;;;15.07;10.00;;;6.30;30.60;;;;;;5066032;28;20140;-69
2021/10/15 06:59:20;;;;;;;21.83;10.35;;;6.40;30.70;;;;;;5077506;28;20047;-68
2021/10/15 07:01:52;;;;;;;18.77;10.95;;;6.50;29.40;;;;;;5070792;28;20052;-70
2021/10/15 07:04:22;;;;;;;17.70;10.20;;;6.70;29.40;;;;;;5074948;28;20491;-67
2021/10/15 07:06:50;;;;;;;15.57;9.45;;;6.70;27.50;;;;;;5073985;28;20079;-69
2021/10/15 07:09:25;;;;;;;18.98;10.02;;;6.80;27.50;;;;;;5067755;28;20052;-67
2021/10/15 07:11:56;;;;;;;16.73;9.75;;;6.90;27.10;;;;;;5074211;28;20384;-69
2021/10/15 07:14:27;;;;;;;15.73;9.20;;;7.10;27.20;;;;;;5073483;28;20128;-69
2021/10/15 07:16:55;;;;;;;19.75;10.18;;;7.10;24.40;;;;;;5067288;28;20032;-69
2021/10/15 07:19:23;;;;;;;18.98;9.82;;;7.20;24.50;;;;;;5069823;28;20055;-69
2021/10/15 07:21:56;;;;;;;15.88;9.70;;;7.40;23.10;;;;;;5069328;28;20054;-69
2021/10/15 07:24:28;;;;;;;13.73;9.27;;;7.60;22.20;;;;;;5068560;28;20701;-69
2021/10/15 07:26:59;;;;;;;18.05;9.27;;;7.60;20.60;;;;;;5072788;28;20102;-69
2021/10/15 07:29:28;;;;;;;16.80;10.25;;;7.70;20.40;;;;;;5068603;28;20167;-69
2021/10/15 07:31:56;;;;;;;17.77;9.95;;;7.80;18.90;;;;;;5068917;28;20040;-71
2021/10/15 07:34:24;;;;;;;14.82;9.48;;;7.90;17.90;;;;;;5071249;28;20056;-69
2021/10/15 07:36:52;;;;;;;18.48;10.07;;;8.10;18.00;;;;;;5067900;28;20163;-69
2021/10/15 07:39:23;;;;;;;18.48;9.18;;;8.00;17.10;;;;;;5069685;28;20182;-69
2021/10/15 07:41:52;;;;;;;15.98;9.38;;;8.20;16.10;;;;;;5074314;28;20044;-68
2021/10/15 07:44:23;;;;;;;13.68;8.63;;;8.30;16.20;;;;;;5073792;28;20125;-70
2021/10/15 07:46:52;;;;;;;15.68;8.55;;;8.30;15.00;;;;;;5077383;28;20051;-69
2021/10/15 07:49:20;;;;;;;13.77;8.82;;;8.30;14.70;;;;;;5070701;28;20142;-69
2021/10/15 07:51:49;;;;;;;17.30;8.98;;;8.50;14.80;;;;;;5071361;28;20529;-69
2021/10/15 07:54:20;;;;;;;13.52;8.93;;;8.70;14.40;;;;;;5071445;28;20209;-68
2021/10/15 07:56:51;;;;;;;19.13;9.52;;;8.80;14.70;;;;;;5072394;28;20070;-70
2021/10/15 07:59:23;;;;;;;12.75;8.85;;;8.60;13.90;;;;;;5068917;28;20567;-68
2021/10/15 08:01:51;;;;;;;12.85;8.63;;;8.60;14.50;;;;;;5076961;28;20075;-70
2021/10/15 08:04:20;;;;;;;12.38;8.98;;;8.70;14.50;;;;;;5070892;28;20052;-69
2021/10/15 08:06:55;;;;;;;16.50;9.20;;;8.90;14.80;;;;;;5068231;28;20048;-69
2021/10/15 08:09:23;;;;;;;13.40;8.45;;;9.10;14.30;;;;;;5068215;28;20081;-69
2021/10/15 08:11:51;;;;;;;13.93;9.18;;;9.40;11.50;;;;;;5070862;28;20044;-69
2021/10/15 08:14:20;;;;;;;13.77;8.52;;;9.50;11.80;;;;;;5070916;28;20047;-69
2021/10/15 08:16:51;;;;;;;13.45;7.82;;;9.70;9.90;;;;;;5068318;28;20040;-69
2021/10/15 08:19:38;;;;;;;14.40;8.23;;;9.70;8.90;;;;;;5066295;28;20068;-69
2021/10/15 08:22:09;;;;;;;12.75;7.60;;;9.90;8.90;;;;;;5073740;28;20497;-69
2021/10/15 08:24:38;;;;;;;11.73;7.70;;;10.00;7.00;;;;;;5069505;28;20055;-69
2021/10/15 08:27:08;;;;;;;10.48;7.60;;;9.90;5.90;;;;;;5065977;28;20118;-70
2021/10/15 08:29:39;;;;;;;11.55;7.55;;;9.80;6.80;;;;;;5073406;28;20151;-70
2021/10/15 08:32:12;;;;;;;12.27;7.68;;;10.10;5.50;;;;;;5071378;28;20052;-69
2021/10/15 08:34:39;;;;;;;11.02;7.63;;;10.30;4.30;;;;;;5067726;28;20040;-69
2021/10/15 08:37:10;;;;;;;9.88;7.38;;;10.50;4.40;;;;;;5069022;28;20040;-69
2021/10/15 08:39:38;;;;;;;10.93;7.47;;;10.60;3.20;;;;;;5067792;28;20052;-69
2021/10/15 08:42:07;;;;;;;11.93;7.00;;;10.60;2.20;;;;;;5066112;28;20132;-69
2021/10/15 08:44:38;;;;;;;10.40;6.88;;;10.70;1.90;;;;;;5074221;28;20377;-69
2021/10/15 08:47:25;;;;;;;10.75;7.10;;;10.80;1.00;;;;;;5069120;28;20139;-69
2021/10/15 08:50:13;;;;;;;10.50;6.78;;;10.80;1.00;;;;;;5069223;28;20676;-68
2021/10/15 08:52:42;;;;;;;10.35;6.20;;;11.00;1.00;;;;;;5073330;27;20099;-68
2021/10/15 08:55:11;;;;;;;8.30;5.70;;;10.90;1.00;;;;;;5072571;28;20639;-71
2021/10/15 08:57:48;;;;;;;7.85;6.43;;;10.70;1.00;;;;;;5067635;28;20597;-68
2021/10/15 09:00:34;;;;;;;14.13;6.70;;;11.00;1.00;;;;;;5068569;28;20044;-69
2021/10/15 09:03:12;;;;;;;10.15;6.00;;;11.30;1.00;;;;;;5072608;28;20048;-69
2021/10/15 09:05:43;;;;;;;10.82;6.63;;;11.40;1.00;;;;;;5066461;28;20826;-70
2021/10/15 09:08:13;;;;;;;11.20;6.85;;;11.40;1.00;;;;;;5067556;27;20071;-70
2021/10/15 09:10:46;;;;;;;10.38;6.97;;;11.50;1.00;;;;;;5070836;28;20051;-70
2021/10/15 09:13:19;;;;;;;12.30;7.53;;;11.70;1.00;;;;;;5068744;28;20335;-70
2021/10/15 09:15:59;;;;;;;8.02;6.10;;;11.80;1.00;;;;;;5068530;28;20051;-69
2021/10/15 09:18:30;;;;;;;10.32;7.00;;;12.10;1.00;;;;;;5069602;28;20062;-69
2021/10/15 09:21:13;;;;;;;11.52;6.97;;;12.00;1.00;;;;;;5069511;28;20048;-69
2021/10/15 09:23:45;;;;;;;11.25;6.40;;;12.20;1.00;;;;;;5066338;28;20161;-69
2021/10/15 09:26:17;;;;;;;8.70;6.28;;;12.20;1.00;;;;;;5072444;28;20668;-69
2021/10/15 09:28:48;;;;;;;9.27;6.53;;;12.30;1.00;;;;;;5068803;28;20078;-69
2021/10/15 09:31:18;;;;;;;7.10;5.88;;;12.40;1.00;;;;;;5069878;28;20041;-69
2021/10/15 09:33:54;;;;;;;11.73;6.95;;;12.50;1.00;;;;;;5072718;28;20101;-70
2021/10/15 09:36:25;;;;;;;8.45;6.18;;;12.40;1.00;;;;;;5066038;28;20040;-69
2021/10/15 09:38:54;;;;;;;9.30;6.15;;;12.60;1.00;;;;;;5071712;28;20048;-69
2021/10/15 09:41:36;;;;;;;8.80;6.63;;;12.70;1.00;;;;;;5072488;28;20646;-70
2021/10/15 09:44:29;;;;;;;7.93;6.03;;;12.80;1.00;;;;;;5064486;28;20506;-70
2021/10/15 09:47:16;;;;;;;7.63;5.55;;;12.50;1.00;;;;;;5063376;28;20044;-71
2021/10/15 09:49:53;;;;;;;6.85;5.00;;;12.80;1.00;;;;;;5072993;28;20052;-70
2021/10/15 09:52:42;;;;;;;7.22;4.53;;;13.00;1.00;;;;;;5070017;28;20151;-69
2021/10/15 09:55:17;;;;;;;7.10;4.95;;;13.10;1.00;;;;;;5065587;28;20102;-70
2021/10/15 09:57:51;;;;;;;6.93;4.03;;;13.20;1.00;;;;;;5074050;28;20054;-69
2021/10/15 10:00:24;;;;;;;6.03;4.22;;;13.00;1.00;;;;;;5072724;28;20046;-70
2021/10/15 10:02:56;;;;;;;7.22;4.18;;;13.30;1.00;;;;;;5070046;28;20051;-70
2021/10/15 10:05:31;;;;;;;6.88;3.80;;;13.40;1.00;;;;;;5069405;28;20151;-70
2021/10/15 10:08:02;;;;;;;7.93;3.88;;;13.20;1.00;;;;;;5073113;28;20076;-70
2021/10/15 10:10:36;;;;;;;6.35;3.70;;;13.50;1.00;;;;;;5065066;28;20062;-69
2021/10/15 10:13:07;;;;;;;7.15;4.07;;;13.60;1.00;;;;;;5071484;28;20365;-69
2021/10/15 10:15:38;;;;;;;8.70;3.67;;;13.60;1.00;;;;;;5070199;28;20151;-70
2021/10/15 10:18:13;;;;;;;7.93;4.65;;;13.80;1.00;;;;;;5068723;28;20121;-70
2021/10/15 10:20:46;;;;;;;5.57;4.18;;;13.30;1.00;;;;;;5073286;28;20048;-70
2021/10/15 10:23:24;;;;;;;5.13;3.72;;;13.40;1.00;;;;;;5061566;28;20053;-70
2021/10/15 10:26:00;;;;;;;6.70;3.92;;;13.40;1.00;;;;;;5064062;28;20067;-71
2021/10/15 10:28:34;;;;;;;5.43;3.53;;;13.60;1.00;;;;;;5067646;28;20148;-70
2021/10/15 10:31:05;;;;;;;6.15;3.75;;;13.70;1.00;;;;;;5070003;28;20048;-70
2021/10/15 10:33:51;;;;;;;6.38;4.18;;;13.50;1.00;;;;;;5065744;28;20048;-68
2021/10/15 10:36:24;;;;;;;5.43;3.65;;;13.70;1.00;;;;;;5072463;28;20056;-70
2021/10/15 10:38:52;;;;;;;4.80;3.35;;;13.80;1.00;;;;;;5073249;28;20408;-69
2021/10/15 10:41:28;;;;;;;6.25;3.90;;;13.70;1.00;;;;;;5070549;28;20102;-70
2021/10/15 10:44:20;;;;;;;6.05;3.80;;;14.00;1.00;;;;;;5072398;28;20446;-70
2021/10/15 10:47:14;;;;;;;5.85;3.65;;;13.60;1.00;;;;;;5073317;28;20105;-70
2021/10/15 10:50:10;;;;;;;5.63;3.40;;;14.20;1.00;;;;;;5072387;28;20392;-68
2021/10/15 10:53:07;;;;;;;5.68;3.55;;;13.70;1.00;;;;;;5068684;28;20103;-69
2021/10/15 10:55:42;;;;;;;5.75;3.83;;;14.20;1.00;;;;;;5069004;28;20139;-70
2021/10/15 10:58:34;;;;;;;8.30;4.20;;;14.10;1.00;;;;;;5076413;28;20078;-70
2021/10/15 11:01:25;;;;;;;8.10;4.70;;;13.90;1.00;;;;;;5073939;28;20829;-68
2021/10/15 11:03:55;;;;;;;6.68;4.57;;;13.60;1.00;;;;;;5073996;28;20513;-69
2021/10/15 11:06:45;;;;;;;6.82;4.10;;;13.70;1.00;;;;;;5074160;28;20560;-69
2021/10/15 11:09:30;;;;;;;7.70;4.60;;;13.70;1.00;;;;;;5072025;28;20075;-70
2021/10/15 11:11:58;;;;;;;6.35;4.20;;;13.50;1.00;;;;;;5073790;28;20048;-69
2021/10/15 11:14:52;;;;;;;6.50;4.63;;;13.70;1.00;;;;;;5070668;28;20109;-69
2021/10/15 11:17:25;;;;;;;6.47;4.45;;;13.40;1.00;;;;;;5077385;28;20071;-70
2021/10/15 11:20:14;;;;;;;8.85;5.07;;;13.50;1.00;;;;;;5072088;28;20533;-68
2021/10/15 11:22:50;;;;;;;6.65;4.47;;;13.70;1.00;;;;;;5080491;28;20050;-70
2021/10/15 11:25:25;;;;;;;6.55;4.18;;;13.80;1.00;;;;;;5080075;28;20098;-69
2021/10/15 11:27:56;;;;;;;7.82;5.10;;;14.10;1.00;;;;;;5080629;28;20083;-69
2021/10/15 11:30:26;;;;;;;6.80;4.50;;;14.10;1.00;;;;;;5080811;28;20292;-69
2021/10/15 11:32:55;;;;;;;7.40;4.75;;;13.80;1.00;;;;;;5086094;28;20048;-70
2021/10/15 11:35:32;;;;;;;5.18;3.97;;;13.80;1.00;;;;;;5074601;28;20040;-69
2021/10/15 11:38:07;;;;;;;4.85;3.90;;;13.90;1.00;;;;;;5085899;28;20055;-70
2021/10/15 11:40:39;;;;;;;5.63;4.00;;;14.10;1.00;;;;;;5077361;28;20596;-68
2021/10/15 11:43:17;;;;;;;5.70;4.47;;;13.90;1.00;;;;;;5078101;28;20128;-69
2021/10/15 11:45:47;;;;;;;7.35;4.30;;;13.90;1.00;;;;;;5079276;28;20048;-69
2021/10/15 11:48:22;;;;;;;7.00;4.78;;;13.90;1.00;;;;;;5081843;28;20047;-69
2021/10/15 11:51:00;;;;;;;7.13;4.15;;;14.40;1.00;;;;;;5081128;28;20044;-68
2021/10/15 11:53:34;;;;;;;;;;;14.60;1.00;;;;;;5077983;28;20102;-68
2021/10/15 11:56:09;;;;;;;8.10;4.13;;;14.60;1.00;;;;;;5084372;28;20333;-68
2021/10/15 11:58:44;;;;;;;3.90;3.20;;;14.50;1.00;;;;;;5077883;28;20040;-69
2021/10/15 12:01:15;;;;;;;7.80;3.75;;;14.50;1.00;;;;;;5076246;28;20132;-69
2021/10/15 12:03:49;;;;;;;4.53;3.40;;;14.80;1.00;;;;;;5084092;28;20079;-71
2021/10/15 12:06:29;;;;;;;6.78;4.30;;;14.80;1.00;;;;;;5080740;28;20138;-70
2021/10/15 12:09:05;;;;;;;6.55;3.42;;;14.60;1.00;;;;;;5077090;28;20448;-72
2021/10/15 12:11:51;;;;;;;5.15;3.45;;;14.70;1.00;;;;;;5079892;28;20483;-69
2021/10/15 12:14:26;;;;;;;3.78;2.90;;;14.80;1.00;;;;;;5068153;28;20045;-68
2021/10/15 12:16:59;;;;;;;4.50;2.72;;;14.60;1.00;;;;;;5072460;28;20036;-70
2021/10/15 12:19:32;;;;;;;5.35;2.50;;;14.50;1.00;;;;;;5075295;28;20089;-69
2021/10/15 12:22:08;;;;;;;3.80;3.00;;;14.50;1.00;;;;;;5080995;28;20530;-69
2021/10/15 12:24:38;;;;;;;3.60;2.53;;;14.70;1.00;;;;;;5079747;28;20101;-70
2021/10/15 12:27:15;;;;;;;3.85;2.53;;;14.70;1.00;;;;;;5086972;28;20352;-69
2021/10/15 12:29:45;;;;;;;4.90;2.95;;;15.20;1.00;;;;;;5080838;28;20044;-71
2021/10/15 12:32:16;;;;;;;4.78;2.80;;;14.90;1.00;;;;;;5071512;28;20044;-70
2021/10/15 12:35:14;;;;;;;3.85;3.13;;;14.90;1.00;;;;;;5036322;28;20044;-70
2021/10/15 12:37:46;;;;;;;6.75;3.50;;;15.00;1.00;;;;;;5073413;28;20049;-70
2021/10/15 12:40:27;;;;;;;3.80;3.13;;;14.90;1.00;;;;;;5069536;28;20097;-69
2021/10/15 12:43:08;;;;;;;5.88;2.88;;;15.10;1.00;;;;;;5074515;28;20052;-70
2021/10/15 12:45:39;;;;;;;4.60;3.30;;;14.70;1.00;;;;;;5071656;28;20113;-69
2021/10/15 12:48:10;;;;;;;6.25;3.30;;;14.80;1.00;;;;;;5071270;28;20055;-69
2021/10/15 12:50:44;;;;;;;6.65;2.95;;;14.80;1.00;;;;;;5070090;28;20133;-69
2021/10/15 12:53:17;;;;;;;3.13;2.80;;;14.70;1.00;;;;;;5075657;28;20118;-69
2021/10/15 12:55:56;;;;;;;3.92;2.88;;;14.80;1.00;;;;;;5066652;28;20047;-68
2021/10/15 12:58:32;;;;;;;5.32;2.80;;;14.80;1.00;;;;;;5071194;28;20099;-69
2021/10/15 13:01:02;;;;;;;5.55;2.95;;;14.80;1.00;;;;;;5069405;28;20220;-68
2021/10/15 13:03:44;;;;;;;4.38;3.08;;;14.60;1.00;;;;;;5071139;28;20048;-69
2021/10/15 13:06:14;;;;;;;4.07;2.70;;;14.60;1.00;;;;;;5069982;28;20097;-68
2021/10/15 13:08:46;;;;;;;5.00;2.95;;;14.40;1.00;;;;;;5067811;28;20063;-70
2021/10/15 13:11:18;;;;;;;3.92;2.92;;;14.50;1.00;;;;;;5076072;28;20059;-69
2021/10/15 13:13:48;;;;;;;3.25;2.70;;;14.80;1.00;;;;;;5069562;28;20063;-69
2021/10/15 13:16:17;;;;;;;7.15;2.85;;;14.80;1.00;;;;;;5070108;28;20052;-70
2021/10/15 13:18:47;;;;;;;4.18;2.92;;;14.60;1.00;;;;;;5062339;28;20101;-69